createdAt,value
2023-04-30T00:00:37.911Z,101742.03
2023-04-30T00:03:04.792Z,101750.84
2023-04-30T00:05:31.831Z,101749.31
2023-04-30T00:07:58.280Z,101749.47
2023-04-30T00:10:24.700Z,101738.47
2023-04-30T00:12:51.141Z,101748.97
2023-04-30T00:15:17.765Z,101750.97
2023-04-30T00:17:44.243Z,101686.34
2023-04-30T00:20:11.619Z,101752.03
2023-04-30T00:22:38.991Z,101753.88
2023-04-30T00:25:05.531Z,101751.28
2023-04-30T00:27:32.017Z,101761.69
2023-04-30T00:29:59.001Z,101759.91
2023-04-30T00:32:25.585Z,101768.66
2023-04-30T00:34:53.074Z,101760.94
2023-04-30T00:37:19.610Z,101758.41
2023-04-30T00:39:46.089Z,101765.47
2023-04-30T00:42:12.590Z,101767.22
2023-04-30T00:44:39.002Z,101769.06
2023-04-30T00:47:05.450Z,101763.91
2023-04-30T00:49:31.947Z,101765.75
2023-04-30T00:51:58.446Z,101760.78
2023-04-30T00:54:25.662Z,101758.66
2023-04-30T00:56:52.357Z,101770.59
2023-04-30T00:59:18.877Z,101777.63
2023-04-30T01:01:45.766Z,101771.84
2023-04-30T01:04:12.496Z,101766.00
2023-04-30T01:06:39.405Z,101769.59
2023-04-30T01:09:06.635Z,101753.00
2023-04-30T01:12:07.597Z,101775.13
2023-04-30T01:14:53.386Z,101772.75
2023-04-30T01:17:41.709Z,101768.59
2023-04-30T01:20:10.370Z,101761.94
2023-04-30T01:22:48.104Z,101760.50
2023-04-30T01:25:34.813Z,101748.69
2023-04-30T01:28:02.892Z,101763.59
2023-04-30T01:30:31.965Z,101767.34
2023-04-30T01:32:58.711Z,101758.84
2023-04-30T01:35:46.797Z,101764.28
2023-04-30T01:38:28.334Z,101755.84
2023-04-30T01:41:02.592Z,101741.88
2023-04-30T01:43:49.590Z,101757.13
2023-04-30T01:46:24.422Z,101756.50
2023-04-30T01:48:50.855Z,101762.59
2023-04-30T01:51:27.583Z,101756.91
2023-04-30T01:53:57.812Z,101757.13
2023-04-30T01:56:42.419Z,101763.25
2023-04-30T01:59:09.576Z,101762.47
2023-04-30T02:01:37.751Z,101748.28
2023-04-30T02:04:04.944Z,101765.34
2023-04-30T02:06:31.783Z,101751.66
2023-04-30T02:09:06.174Z,101741.19
2023-04-30T02:11:33.714Z,101725.47
2023-04-30T02:14:00.146Z,101775.63
2023-04-30T02:16:26.604Z,101758.63
2023-04-30T02:18:53.120Z,101763.03
2023-04-30T02:21:19.574Z,101758.06
2023-04-30T02:23:46.682Z,101753.28
2023-04-30T02:26:13.141Z,101757.41
2023-04-30T02:28:39.538Z,101754.09
2023-04-30T02:31:06.095Z,101739.13
2023-04-30T02:33:32.472Z,101752.69
2023-04-30T02:36:00.354Z,101748.50
2023-04-30T02:38:26.911Z,101742.13
2023-04-30T02:40:53.420Z,101720.25
2023-04-30T02:43:19.864Z,101752.38
2023-04-30T02:45:46.339Z,101754.19
2023-04-30T02:48:12.803Z,101759.53
2023-04-30T02:50:39.208Z,101755.44
2023-04-30T02:53:05.594Z,101758.16
2023-04-30T02:55:32.764Z,101748.16
2023-04-30T02:57:59.765Z,101743.03
2023-04-30T03:00:26.462Z,101745.69
2023-04-30T03:02:53.002Z,101751.13
2023-04-30T03:05:19.542Z,101759.00
2023-04-30T03:07:46.006Z,101755.59
2023-04-30T03:10:12.433Z,101766.97
2023-04-30T03:12:38.962Z,101763.66
2023-04-30T03:15:06.132Z,101678.44
2023-04-30T03:17:32.558Z,101714.00
2023-04-30T03:19:58.962Z,101756.31
2023-04-30T03:22:26.708Z,101724.47
2023-04-30T03:24:53.281Z,101754.56
2023-04-30T03:27:19.763Z,101766.50
2023-04-30T03:29:46.209Z,101730.91
2023-04-30T03:32:12.572Z,101763.06
2023-04-30T03:34:38.966Z,101758.78
2023-04-30T03:37:05.535Z,101763.19
2023-04-30T03:39:31.977Z,101764.16
2023-04-30T03:41:58.360Z,101756.50
2023-04-30T03:44:24.815Z,101758.31
2023-04-30T03:46:51.324Z,101763.56
2023-04-30T03:49:17.751Z,101759.25
2023-04-30T03:51:44.340Z,101757.47
2023-04-30T03:54:10.798Z,101762.06
2023-04-30T03:56:37.734Z,101763.81
2023-04-30T03:59:05.439Z,101757.06
2023-04-30T04:01:32.025Z,101760.50
2023-04-30T04:03:59.034Z,101758.94
2023-04-30T04:06:26.837Z,101760.75
2023-04-30T04:08:53.381Z,101755.63
2023-04-30T04:11:20.765Z,101768.72
2023-04-30T04:13:47.244Z,101761.03
2023-04-30T04:16:13.713Z,101762.09
2023-04-30T04:18:40.136Z,101770.69
2023-04-30T04:21:07.631Z,101769.88
2023-04-30T04:23:34.046Z,101768.06
2023-04-30T04:26:00.508Z,101767.13
2023-04-30T04:28:27.267Z,101773.97
2023-04-30T04:30:53.651Z,101775.69
2023-04-30T04:33:20.142Z,101773.03
2023-04-30T04:35:46.576Z,101772.91
2023-04-30T04:38:13.049Z,101766.00
2023-04-30T04:40:40.072Z,101761.59
2023-04-30T04:43:06.547Z,101769.31
2023-04-30T04:45:33.594Z,101773.16
2023-04-30T04:48:00.103Z,101764.34
2023-04-30T04:50:26.541Z,101777.13
2023-04-30T04:52:52.936Z,101770.09
2023-04-30T04:55:19.723Z,101771.50
2023-04-30T04:57:46.245Z,101774.66
2023-04-30T05:00:13.137Z,101787.25
2023-04-30T05:02:39.625Z,101793.72
2023-04-30T05:05:06.886Z,101791.50
2023-04-30T05:07:34.948Z,101785.91
2023-04-30T05:10:01.403Z,101786.44
2023-04-30T05:12:27.855Z,101789.28
2023-04-30T05:14:54.258Z,101800.88
2023-04-30T05:17:20.855Z,101795.97
2023-04-30T05:19:50.493Z,101804.56
2023-04-30T05:22:17.437Z,101812.03
2023-04-30T05:24:43.967Z,101808.34
2023-04-30T05:27:10.375Z,101814.97
2023-04-30T05:29:36.859Z,101810.72
2023-04-30T05:32:03.439Z,101804.38
2023-04-30T05:34:30.063Z,101806.41
2023-04-30T05:36:56.525Z,101805.56
2023-04-30T05:39:23.009Z,101816.44
2023-04-30T05:41:50.360Z,101823.28
2023-04-30T05:44:17.993Z,101818.38
2023-04-30T05:46:44.430Z,101826.53
2023-04-30T05:49:11.296Z,101825.44
2023-04-30T05:51:37.694Z,101825.44
2023-04-30T05:54:04.103Z,101828.31
2023-04-30T05:56:30.614Z,101820.88
2023-04-30T05:58:57.028Z,101817.03
2023-04-30T06:01:24.116Z,101821.28
2023-04-30T06:03:50.665Z,101774.47
2023-04-30T06:06:17.061Z,101797.16
2023-04-30T06:08:45.731Z,101821.22
2023-04-30T06:11:12.918Z,101815.91
2023-04-30T06:13:39.909Z,101810.34
2023-04-30T06:16:08.228Z,101816.56
2023-04-30T06:18:34.946Z,101806.00
2023-04-30T06:21:01.362Z,101816.06
2023-04-30T06:23:27.784Z,101814.81
2023-04-30T06:25:54.244Z,101809.22
2023-04-30T06:28:21.247Z,101796.34
2023-04-30T06:30:47.844Z,101799.53
2023-04-30T06:33:14.285Z,101811.25
2023-04-30T06:35:40.723Z,101811.63
2023-04-30T06:38:07.149Z,101813.63
2023-04-30T06:40:34.044Z,101821.94
2023-04-30T06:43:00.473Z,101810.47
2023-04-30T06:45:26.875Z,101810.59
2023-04-30T06:47:53.494Z,101816.75
2023-04-30T06:50:21.785Z,101819.00
2023-04-30T06:52:48.546Z,101786.47
2023-04-30T06:55:15.049Z,101806.41
2023-04-30T06:57:41.463Z,101811.13
2023-04-30T07:00:08.998Z,101804.88
2023-04-30T07:02:36.089Z,101800.78
2023-04-30T07:05:03.047Z,101804.75
2023-04-30T07:07:29.602Z,101803.72
2023-04-30T07:09:56.552Z,101799.88
2023-04-30T07:12:23.285Z,101807.00
2023-04-30T07:14:49.750Z,101810.34
2023-04-30T07:17:16.440Z,101782.81
2023-04-30T07:19:42.949Z,101803.66
2023-04-30T07:22:09.355Z,101808.00
2023-04-30T07:24:35.888Z,101808.03
2023-04-30T07:27:03.773Z,101802.69
2023-04-30T07:29:30.375Z,101808.34
2023-04-30T07:31:58.312Z,101807.38
2023-04-30T07:34:25.118Z,101802.03
2023-04-30T07:36:51.653Z,101807.66
2023-04-30T07:39:18.085Z,101809.38
2023-04-30T07:41:44.949Z,101805.53
2023-04-30T07:44:12.016Z,101769.97
2023-04-30T07:46:38.682Z,101800.53
2023-04-30T07:49:05.162Z,101791.00
2023-04-30T07:51:32.934Z,101800.38
2023-04-30T07:54:00.320Z,101805.75
2023-04-30T07:56:26.833Z,101791.31
2023-04-30T07:58:53.236Z,101797.16
2023-04-30T08:01:19.691Z,101790.97
2023-04-30T08:03:46.568Z,101797.69
2023-04-30T08:06:13.244Z,101791.56
2023-04-30T08:08:39.763Z,101791.88
2023-04-30T08:11:06.259Z,101792.56
2023-04-30T08:13:32.724Z,101792.75
2023-04-30T08:15:59.145Z,101790.19
2023-04-30T08:18:25.563Z,101790.72
2023-04-30T08:20:52.003Z,101783.56
2023-04-30T08:23:18.428Z,101794.03
2023-04-30T08:25:44.921Z,101778.16
2023-04-30T08:28:11.367Z,101802.84
2023-04-30T08:30:37.819Z,101798.19
2023-04-30T08:33:04.625Z,101794.31
2023-04-30T08:35:31.201Z,101793.53
2023-04-30T08:37:57.918Z,101798.88
2023-04-30T08:40:43.657Z,101795.47
2023-04-30T08:43:12.187Z,101785.41
2023-04-30T08:45:38.773Z,101788.72
2023-04-30T08:48:11.508Z,101785.16
2023-04-30T08:50:38.079Z,101801.00
2023-04-30T08:53:04.805Z,101791.19
2023-04-30T08:55:34.364Z,101778.16
2023-04-30T08:58:00.878Z,101784.75
2023-04-30T09:00:27.567Z,101785.91
2023-04-30T09:02:54.099Z,101782.59
2023-04-30T09:05:20.630Z,101779.47
2023-04-30T09:10:21.695Z,101783.25
2023-04-30T09:13:02.967Z,101779.94
2023-04-30T09:15:31.048Z,101783.91
2023-04-30T09:18:12.140Z,101773.28
2023-04-30T09:20:54.426Z,101766.16
2023-04-30T09:23:21.795Z,101774.63
2023-04-30T09:25:48.228Z,101766.66
2023-04-30T09:28:14.681Z,101764.63
2023-04-30T09:30:42.429Z,101761.47
2023-04-30T09:33:11.723Z,101764.50
2023-04-30T09:35:39.993Z,101747.16
2023-04-30T09:38:06.455Z,101739.34
2023-04-30T09:40:42.579Z,101745.88
2023-04-30T09:43:09.398Z,101744.91
2023-04-30T09:45:52.857Z,101745.56
2023-04-30T09:48:22.801Z,101743.59
2023-04-30T09:50:52.197Z,101753.59
2023-04-30T09:53:20.119Z,101733.00
2023-04-30T09:55:49.653Z,101746.56
2023-04-30T09:58:17.890Z,101746.63
2023-04-30T10:00:48.321Z,101747.16
2023-04-30T10:03:16.181Z,101743.06
2023-04-30T10:05:47.342Z,101746.03
2023-04-30T10:08:33.734Z,101746.03
2023-04-30T10:11:05.136Z,101740.06
2023-04-30T10:13:35.895Z,101738.19
2023-04-30T10:16:09.836Z,101733.63
2023-04-30T10:18:39.943Z,101730.41
2023-04-30T10:21:12.589Z,101724.44
2023-04-30T10:23:42.094Z,101706.91
2023-04-30T10:26:10.903Z,101711.16
2023-04-30T10:28:37.958Z,101727.47
2023-04-30T10:31:07.023Z,101727.47
2023-04-30T10:33:58.293Z,101718.25
2023-04-30T10:36:33.843Z,101716.84
2023-04-30T10:39:01.577Z,101659.09
2023-04-30T10:41:29.500Z,101707.88
2023-04-30T10:44:01.878Z,101722.44
2023-04-30T10:46:28.876Z,101704.50
2023-04-30T10:48:55.739Z,101703.28
2023-04-30T10:51:22.812Z,101698.44
2023-04-30T10:53:51.730Z,101694.34
2023-04-30T10:56:34.661Z,101683.47
2023-04-30T10:59:02.598Z,101679.00
2023-04-30T11:01:31.052Z,101685.53
2023-04-30T11:04:06.222Z,101680.06
2023-04-30T11:06:55.735Z,101673.25
2023-04-30T11:09:48.192Z,101671.44
2023-04-30T11:12:28.679Z,101660.53
2023-04-30T11:15:07.089Z,101667.78
2023-04-30T11:17:34.290Z,101663.47
2023-04-30T11:20:01.894Z,101670.25
2023-04-30T11:22:36.292Z,101663.34
2023-04-30T11:25:05.061Z,101669.03
2023-04-30T11:27:34.210Z,101663.63
2023-04-30T11:30:02.273Z,101661.59
2023-04-30T11:32:36.039Z,101664.56
2023-04-30T11:35:04.671Z,101619.56
2023-04-30T11:37:36.521Z,101655.56
2023-04-30T11:40:08.608Z,101655.97
2023-04-30T11:42:35.241Z,101645.78
2023-04-30T11:45:06.905Z,101654.13
2023-04-30T11:47:43.958Z,101655.84
2023-04-30T11:50:12.023Z,101644.13
2023-04-30T11:52:39.497Z,101641.81
2023-04-30T11:55:16.854Z,101641.47
2023-04-30T11:57:44.978Z,101610.38
2023-04-30T12:00:13.343Z,101580.03
2023-04-30T12:02:40.293Z,101623.34
2023-04-30T12:05:20.502Z,101617.31
2023-04-30T12:08:06.421Z,101618.16
2023-04-30T12:10:32.941Z,101620.22
2023-04-30T12:12:59.646Z,101602.75
2023-04-30T12:15:27.464Z,101595.56
2023-04-30T12:17:56.360Z,101590.75
2023-04-30T12:20:25.344Z,101594.22
2023-04-30T12:22:52.075Z,101614.84
2023-04-30T12:25:20.641Z,101597.25
2023-04-30T12:27:49.099Z,101607.72
2023-04-30T12:30:19.488Z,101597.91
2023-04-30T12:32:48.725Z,101588.97
2023-04-30T12:35:17.288Z,101594.94
2023-04-30T12:37:50.104Z,101590.13
2023-04-30T12:40:18.680Z,101583.66
2023-04-30T12:42:46.951Z,101586.81
2023-04-30T12:45:34.013Z,101573.66
2023-04-30T12:48:00.489Z,101588.13
2023-04-30T12:50:27.060Z,101531.56
2023-04-30T12:52:53.449Z,101582.50
2023-04-30T12:55:21.117Z,101583.22
2023-04-30T12:58:11.396Z,101583.19
2023-04-30T13:00:45.691Z,101579.84
2023-04-30T13:03:13.250Z,101572.78
2023-04-30T13:05:42.052Z,101571.34
2023-04-30T13:08:09.568Z,101566.31
2023-04-30T13:10:36.010Z,101570.84
2023-04-30T13:13:02.434Z,101563.56
2023-04-30T13:15:28.923Z,101561.09
2023-04-30T13:17:55.912Z,101559.09
2023-04-30T13:20:22.442Z,101554.13
2023-04-30T13:22:48.904Z,101550.13
2023-04-30T13:25:15.335Z,101549.16
2023-04-30T13:27:41.746Z,101551.81
2023-04-30T13:30:09.674Z,101547.50
2023-04-30T13:32:36.802Z,101546.13
2023-04-30T13:35:03.844Z,101534.56
2023-04-30T13:37:32.916Z,101542.69
2023-04-30T13:40:01.436Z,101535.50
2023-04-30T13:42:27.837Z,101533.69
2023-04-30T13:44:54.272Z,101512.47
2023-04-30T13:47:21.420Z,101529.34
2023-04-30T13:49:47.862Z,101517.66
2023-04-30T13:52:14.272Z,101505.56
2023-04-30T13:54:41.520Z,101507.78
2023-04-30T13:57:08.051Z,101494.22
2023-04-30T13:59:34.662Z,101509.81
2023-04-30T14:02:01.300Z,101507.97
2023-04-30T14:04:27.686Z,101504.97
2023-04-30T14:06:56.657Z,101502.97
2023-04-30T14:09:23.623Z,101505.59
2023-04-30T14:11:51.139Z,101475.94
2023-04-30T14:14:17.605Z,101507.66
2023-04-30T14:16:44.824Z,101503.81
2023-04-30T14:19:11.324Z,101494.31
2023-04-30T14:21:37.751Z,101484.88
2023-04-30T14:24:04.957Z,101489.16
2023-04-30T14:26:31.389Z,101485.59
2023-04-30T14:28:58.053Z,101487.97
2023-04-30T14:31:24.609Z,101477.63
2023-04-30T14:33:50.998Z,101482.09
2023-04-30T14:36:17.507Z,101469.69
2023-04-30T14:38:43.960Z,101418.28
2023-04-30T14:41:10.428Z,101471.38
2023-04-30T14:43:36.810Z,101480.63
2023-04-30T14:46:03.816Z,101469.88
2023-04-30T14:48:30.298Z,101465.19
2023-04-30T14:50:56.762Z,101458.59
2023-04-30T14:53:23.191Z,101458.19
2023-04-30T14:55:50.408Z,101463.25
2023-04-30T14:58:16.816Z,101454.03
2023-04-30T15:00:43.204Z,101452.00
2023-04-30T15:03:09.811Z,101451.03
2023-04-30T15:05:36.510Z,101452.41
2023-04-30T15:08:02.959Z,101445.97
2023-04-30T15:10:29.377Z,101449.16
2023-04-30T15:12:55.792Z,101445.47
2023-04-30T15:15:27.731Z,101435.25
2023-04-30T15:17:58.268Z,101444.66
2023-04-30T15:20:24.773Z,101434.31
2023-04-30T15:22:51.405Z,101431.63
2023-04-30T15:25:18.152Z,101445.25
2023-04-30T15:27:44.637Z,101432.41
2023-04-30T15:30:12.263Z,101406.59
2023-04-30T15:32:38.948Z,101431.66
2023-04-30T15:35:06.130Z,101425.84
2023-04-30T15:37:34.476Z,101423.19
2023-04-30T15:40:01.160Z,101419.22
2023-04-30T15:42:27.627Z,101414.22
2023-04-30T15:44:54.079Z,101416.97
2023-04-30T15:47:22.471Z,101415.13
2023-04-30T15:49:50.376Z,101429.03
2023-04-30T15:52:16.821Z,101415.28
2023-04-30T15:54:43.224Z,101412.97
2023-04-30T15:57:09.712Z,101406.69
2023-04-30T15:59:36.220Z,101405.81
2023-04-30T16:02:02.719Z,101404.44
2023-04-30T16:04:29.372Z,101406.97
2023-04-30T16:06:57.116Z,101398.44
2023-04-30T16:09:23.959Z,101399.25
2023-04-30T16:11:51.175Z,101362.94
2023-04-30T16:14:17.620Z,101401.41
2023-04-30T16:16:44.075Z,101393.31
2023-04-30T16:19:12.321Z,101396.00
2023-04-30T16:21:39.435Z,101375.63
2023-04-30T16:24:07.059Z,101388.38
2023-04-30T16:26:36.202Z,101389.63
2023-04-30T16:29:04.261Z,101386.78
2023-04-30T16:31:30.866Z,101390.44
2023-04-30T16:33:57.316Z,101393.91
2023-04-30T16:36:23.760Z,101396.22
2023-04-30T16:38:50.168Z,101391.72
2023-04-30T16:41:17.410Z,101392.50
2023-04-30T16:43:44.542Z,101392.34
2023-04-30T16:46:11.036Z,101389.03
2023-04-30T16:48:37.924Z,101381.34
2023-04-30T16:51:05.321Z,101383.28
2023-04-30T16:53:31.730Z,101383.00
2023-04-30T16:55:58.103Z,101373.41
2023-04-30T16:58:24.501Z,101376.34
2023-04-30T17:00:55.930Z,101384.59
2023-04-30T17:03:23.428Z,101371.00
2023-04-30T17:05:54.585Z,101372.97
2023-04-30T17:08:21.084Z,101362.66
2023-04-30T17:10:47.681Z,101368.25
2023-04-30T17:13:14.468Z,101370.66
2023-04-30T17:15:41.430Z,101363.03
2023-04-30T17:18:09.557Z,101358.41
2023-04-30T17:20:36.184Z,101354.72
2023-04-30T17:23:03.366Z,101350.84
2023-04-30T17:25:31.732Z,101349.50
2023-04-30T17:28:01.356Z,101349.84
2023-04-30T17:30:28.704Z,101349.19
2023-04-30T17:32:56.335Z,101322.84
2023-04-30T17:35:23.069Z,101346.41
2023-04-30T17:37:49.494Z,101359.34
2023-04-30T17:40:16.042Z,101352.78
2023-04-30T17:42:42.478Z,101355.78
2023-04-30T17:45:09.312Z,101347.59
2023-04-30T17:47:35.751Z,101362.75
2023-04-30T17:50:04.883Z,101353.78
2023-04-30T17:52:33.429Z,101327.97
2023-04-30T17:54:59.866Z,101351.69
2023-04-30T17:57:26.434Z,101331.38
2023-04-30T17:59:52.951Z,101355.63
2023-04-30T18:02:19.615Z,101360.59
2023-04-30T18:04:46.032Z,101343.53
2023-04-30T18:07:12.436Z,101356.81
2023-04-30T18:09:38.822Z,101357.78
2023-04-30T18:12:05.667Z,101356.19
2023-04-30T18:14:32.553Z,101340.94
2023-04-30T18:16:59.280Z,101336.41
2023-04-30T18:19:25.728Z,101349.56
2023-04-30T18:21:53.118Z,101351.59
2023-04-30T18:24:20.215Z,101348.69
2023-04-30T18:26:46.656Z,101351.91
2023-04-30T18:29:15.676Z,101346.91
2023-04-30T18:31:44.007Z,101353.94
2023-04-30T18:34:10.603Z,101334.97
2023-04-30T18:36:37.081Z,101347.31
2023-04-30T18:39:03.588Z,101344.97
2023-04-30T18:41:30.055Z,101350.25
2023-04-30T18:43:56.665Z,101345.41
2023-04-30T18:46:23.760Z,101328.06
2023-04-30T18:48:50.191Z,101344.72
2023-04-30T18:51:16.932Z,101354.72
2023-04-30T18:53:45.203Z,101351.97
2023-04-30T18:56:12.456Z,101319.41
2023-04-30T18:58:39.444Z,101346.16
2023-04-30T19:01:05.977Z,101355.19
2023-04-30T19:03:33.851Z,101353.94
2023-04-30T19:06:00.505Z,101350.72
2023-04-30T19:08:27.296Z,101347.00
2023-04-30T19:10:55.302Z,101354.06
2023-04-30T19:13:21.683Z,101352.69
2023-04-30T19:15:48.796Z,101355.03
2023-04-30T19:18:16.465Z,101361.69
2023-04-30T19:20:43.311Z,101351.44
2023-04-30T19:23:10.178Z,101360.44
2023-04-30T19:25:37.622Z,101372.09
2023-04-30T19:28:04.138Z,101366.28
2023-04-30T19:30:30.635Z,101377.22
2023-04-30T19:32:57.062Z,101383.13
2023-04-30T19:35:23.518Z,101338.19
2023-04-30T19:37:49.902Z,101377.84
2023-04-30T19:40:18.318Z,101374.41
2023-04-30T19:42:44.819Z,101382.81
2023-04-30T19:45:11.422Z,101374.22
2023-04-30T19:47:38.095Z,101383.34
2023-04-30T19:50:05.104Z,101376.81
2023-04-30T19:52:31.545Z,101379.97
2023-04-30T19:54:58.504Z,101382.31
2023-04-30T19:57:25.052Z,101380.94
2023-04-30T19:59:51.598Z,101380.31
2023-04-30T20:02:18.088Z,101375.13
2023-04-30T20:04:44.512Z,101363.34
2023-04-30T20:07:10.926Z,101371.81
2023-04-30T20:09:37.576Z,101376.25
2023-04-30T20:12:04.270Z,101367.06
2023-04-30T20:14:31.024Z,101374.66
2023-04-30T20:16:57.513Z,101364.50
2023-04-30T20:19:25.148Z,101374.91
2023-04-30T20:21:51.997Z,101379.59
2023-04-30T20:24:19.043Z,101374.47
2023-04-30T20:26:45.598Z,101365.88
2023-04-30T20:29:12.113Z,101371.25
2023-04-30T20:31:38.677Z,101361.97
2023-04-30T20:34:05.167Z,101366.38
2023-04-30T20:36:32.360Z,101361.28
2023-04-30T20:38:58.833Z,101366.66
2023-04-30T20:41:26.527Z,101361.78
2023-04-30T20:43:54.024Z,101362.75
2023-04-30T20:46:22.775Z,101368.25
2023-04-30T20:48:49.565Z,101363.25
2023-04-30T20:51:16.129Z,101361.72
2023-04-30T20:53:42.579Z,101363.91
2023-04-30T20:56:09.129Z,101365.00
2023-04-30T20:58:35.601Z,101371.44
2023-04-30T21:01:02.071Z,101367.41
2023-04-30T21:03:28.599Z,101362.53
2023-04-30T21:05:55.105Z,101362.94
2023-04-30T21:08:21.626Z,101370.34
2023-04-30T21:10:50.468Z,101360.94
2023-04-30T21:13:17.076Z,101328.28
2023-04-30T21:15:43.573Z,101347.84
2023-04-30T21:18:10.236Z,101360.97
2023-04-30T21:20:36.684Z,101360.38
2023-04-30T21:23:03.196Z,101352.88
2023-04-30T21:25:29.720Z,101352.28
2023-04-30T21:27:56.219Z,101343.13
2023-04-30T21:30:25.631Z,101339.81
2023-04-30T21:32:57.872Z,101341.91
2023-04-30T21:35:25.403Z,101342.19
2023-04-30T21:37:51.869Z,101335.53
2023-04-30T21:40:18.347Z,101341.84
2023-04-30T21:42:44.890Z,101337.56
2023-04-30T21:45:11.442Z,101336.00
2023-04-30T21:47:37.870Z,101293.03
2023-04-30T21:50:05.674Z,101336.88
2023-04-30T21:52:32.173Z,101333.78
2023-04-30T21:54:59.238Z,101334.00
2023-04-30T21:57:25.778Z,101328.44
2023-04-30T21:59:52.172Z,101330.72
2023-04-30T22:02:23.314Z,101324.41
2023-04-30T22:04:51.157Z,101303.31
2023-04-30T22:07:17.608Z,101319.28
2023-04-30T22:09:44.958Z,101303.22
2023-04-30T22:12:11.627Z,101314.50
2023-04-30T22:14:38.256Z,101308.06
2023-04-30T22:17:04.668Z,101312.16
2023-04-30T22:19:31.330Z,101307.13
2023-04-30T22:21:57.791Z,101300.56
2023-04-30T22:24:24.731Z,101297.69
2023-04-30T22:26:51.159Z,101293.88
2023-04-30T22:29:18.000Z,101301.03
2023-04-30T22:31:44.469Z,101302.34
2023-04-30T22:34:11.525Z,101304.56
2023-04-30T22:36:37.919Z,101307.63
2023-04-30T22:39:04.556Z,101306.41
2023-04-30T22:41:34.077Z,101305.19
2023-04-30T22:44:01.087Z,101297.94
2023-04-30T22:46:27.624Z,101298.38
2023-04-30T22:48:55.279Z,101296.94
2023-04-30T22:51:21.951Z,101294.78
2023-04-30T22:53:48.628Z,101293.44
2023-04-30T22:56:15.208Z,101297.25
2023-04-30T22:58:41.618Z,101287.44
2023-04-30T23:01:08.385Z,101300.50
2023-04-30T23:03:35.501Z,101293.75
2023-04-30T23:06:02.024Z,101301.69
2023-04-30T23:08:28.496Z,101295.03
2023-04-30T23:10:55.598Z,101288.84
2023-04-30T23:13:22.829Z,101289.06
2023-04-30T23:15:49.591Z,101295.94
2023-04-30T23:18:16.059Z,101296.91
2023-04-30T23:20:42.481Z,101287.53
2023-04-30T23:23:08.974Z,101294.63
2023-04-30T23:25:35.560Z,101296.63
2023-04-30T23:28:01.959Z,101283.66
2023-04-30T23:30:28.431Z,101285.66
2023-04-30T23:32:56.462Z,101285.88
2023-04-30T23:35:22.981Z,101209.16
2023-04-30T23:37:49.410Z,101273.34
2023-04-30T23:40:15.858Z,101272.75
2023-04-30T23:42:42.348Z,101281.75
2023-04-30T23:45:09.364Z,101272.34
2023-04-30T23:47:36.717Z,101271.34
2023-04-30T23:50:04.063Z,101263.41
2023-04-30T23:52:30.557Z,101252.94
2023-04-30T23:54:57.335Z,101201.59
2023-04-30T23:57:24.599Z,101254.84
2023-04-30T23:59:51.024Z,101258.50
